sensor_id;sensor_type;location;lat;lon;timestamp;P1;durP1;ratioP1;P2;durP2;ratioP2
40599;SDS011;26309;50.924;4.754;2023-04-24T00:00:16;22.37;;;14.83;;
40599;SDS011;26309;50.924;4.754;2023-04-24T00:02:43;22.23;;;14.87;;
40599;SDS011;26309;50.924;4.754;2023-04-24T00:05:16;21.87;;;15.23;;
40599;SDS011;26309;50.924;4.754;2023-04-24T00:07:43;25.53;;;16.07;;
40599;SDS011;26309;50.924;4.754;2023-04-24T00:10:10;27.43;;;16.40;;
40599;SDS011;26309;50.924;4.754;2023-04-24T00:12:37;25.40;;;16.13;;
40599;SDS011;26309;50.924;4.754;2023-04-24T00:15:04;22.80;;;17.53;;
40599;SDS011;26309;50.924;4.754;2023-04-24T00:17:30;23.93;;;16.93;;
40599;SDS011;26309;50.924;4.754;2023-04-24T00:19:57;26.30;;;16.90;;
40599;SDS011;26309;50.924;4.754;2023-04-24T00:22:28;24.10;;;16.17;;
40599;SDS011;26309;50.924;4.754;2023-04-24T00:24:54;27.10;;;16.57;;
40599;SDS011;26309;50.924;4.754;2023-04-24T00:27:20;28.80;;;18.02;;
40599;SDS011;26309;50.924;4.754;2023-04-24T00:29:46;25.23;;;17.17;;
40599;SDS011;26309;50.924;4.754;2023-04-24T00:32:12;28.73;;;17.33;;
40599;SDS011;26309;50.924;4.754;2023-04-24T00:34:38;22.50;;;17.03;;
40599;SDS011;26309;50.924;4.754;2023-04-24T00:37:17;24.55;;;16.65;;
40599;SDS011;26309;50.924;4.754;2023-04-24T00:39:43;28.30;;;16.58;;
40599;SDS011;26309;50.924;4.754;2023-04-24T00:42:08;22.17;;;16.47;;
40599;SDS011;26309;50.924;4.754;2023-04-24T00:44:42;23.27;;;15.45;;
40599;SDS011;26309;50.924;4.754;2023-04-24T00:47:08;21.00;;;15.57;;
40599;SDS011;26309;50.924;4.754;2023-04-24T00:49:36;25.00;;;16.30;;
40599;SDS011;26309;50.924;4.754;2023-04-24T00:52:02;26.73;;;16.33;;
40599;SDS011;26309;50.924;4.754;2023-04-24T00:54:32;26.27;;;15.37;;
40599;SDS011;26309;50.924;4.754;2023-04-24T00:56:58;25.80;;;17.03;;
40599;SDS011;26309;50.924;4.754;2023-04-24T00:59:25;21.73;;;16.93;;
40599;SDS011;26309;50.924;4.754;2023-04-24T01:01:51;26.77;;;17.87;;
40599;SDS011;26309;50.924;4.754;2023-04-24T01:04:17;22.63;;;17.00;;
40599;SDS011;26309;50.924;4.754;2023-04-24T01:06:43;24.60;;;17.23;;
40599;SDS011;26309;50.924;4.754;2023-04-24T01:09:10;28.53;;;16.03;;
40599;SDS011;26309;50.924;4.754;2023-04-24T01:11:37;22.10;;;16.67;;
40599;SDS011;26309;50.924;4.754;2023-04-24T01:14:03;31.40;;;17.30;;
40599;SDS011;26309;50.924;4.754;2023-04-24T01:16:29;25.67;;;16.97;;
40599;SDS011;26309;50.924;4.754;2023-04-24T01:18:55;28.93;;;18.00;;
40599;SDS011;26309;50.924;4.754;2023-04-24T01:21:21;25.23;;;17.40;;
40599;SDS011;26309;50.924;4.754;2023-04-24T01:23:50;26.87;;;16.80;;
40599;SDS011;26309;50.924;4.754;2023-04-24T01:26:16;26.00;;;16.37;;
40599;SDS011;26309;50.924;4.754;2023-04-24T01:28:45;27.63;;;16.33;;
40599;SDS011;26309;50.924;4.754;2023-04-24T01:31:11;24.57;;;15.40;;
40599;SDS011;26309;50.924;4.754;2023-04-24T01:33:37;22.63;;;15.30;;
40599;SDS011;26309;50.924;4.754;2023-04-24T01:36:03;26.07;;;15.10;;
40599;SDS011;26309;50.924;4.754;2023-04-24T01:38:30;22.83;;;14.75;;
40599;SDS011;26309;50.924;4.754;2023-04-24T01:40:55;23.60;;;15.38;;
40599;SDS011;26309;50.924;4.754;2023-04-24T01:43:21;24.23;;;16.00;;
40599;SDS011;26309;50.924;4.754;2023-04-24T01:45:47;20.87;;;15.70;;
40599;SDS011;26309;50.924;4.754;2023-04-24T01:48:13;23.37;;;14.97;;
40599;SDS011;26309;50.924;4.754;2023-04-24T01:50:39;19.63;;;14.53;;
40599;SDS011;26309;50.924;4.754;2023-04-24T01:53:05;21.97;;;13.80;;
40599;SDS011;26309;50.924;4.754;2023-04-24T01:55:31;24.33;;;13.93;;
40599;SDS011;26309;50.924;4.754;2023-04-24T01:57:57;17.97;;;13.27;;
40599;SDS011;26309;50.924;4.754;2023-04-24T02:00:24;20.30;;;13.47;;
40599;SDS011;26309;50.924;4.754;2023-04-24T02:02:50;20.57;;;13.03;;
40599;SDS011;26309;50.924;4.754;2023-04-24T02:05:17;19.43;;;12.27;;
40599;SDS011;26309;50.924;4.754;2023-04-24T02:07:43;20.90;;;13.30;;
40599;SDS011;26309;50.924;4.754;2023-04-24T02:10:09;18.27;;;12.80;;
40599;SDS011;26309;50.924;4.754;2023-04-24T02:12:35;16.00;;;12.30;;
40599;SDS011;26309;50.924;4.754;2023-04-24T02:17:51;15.53;;;11.60;;
40599;SDS011;26309;50.924;4.754;2023-04-24T02:20:16;15.97;;;12.33;;
40599;SDS011;26309;50.924;4.754;2023-04-24T02:22:42;18.33;;;12.87;;
40599;SDS011;26309;50.924;4.754;2023-04-24T02:25:08;18.93;;;12.57;;
40599;SDS011;26309;50.924;4.754;2023-04-24T02:27:34;17.63;;;12.93;;
40599;SDS011;26309;50.924;4.754;2023-04-24T02:30:00;16.87;;;13.53;;
40599;SDS011;26309;50.924;4.754;2023-04-24T02:32:26;19.97;;;13.23;;
40599;SDS011;26309;50.924;4.754;2023-04-24T02:34:52;16.93;;;12.93;;
40599;SDS011;26309;50.924;4.754;2023-04-24T02:37:18;18.97;;;15.00;;
40599;SDS011;26309;50.924;4.754;2023-04-24T02:39:43;18.67;;;14.33;;
40599;SDS011;26309;50.924;4.754;2023-04-24T02:42:09;20.90;;;15.80;;
40599;SDS011;26309;50.924;4.754;2023-04-24T02:44:35;23.40;;;16.17;;
40599;SDS011;26309;50.924;4.754;2023-04-24T02:47:01;21.90;;;15.70;;
40599;SDS011;26309;50.924;4.754;2023-04-24T02:49:27;20.67;;;15.47;;
40599;SDS011;26309;50.924;4.754;2023-04-24T02:51:53;25.33;;;16.63;;
40599;SDS011;26309;50.924;4.754;2023-04-24T02:54:18;25.60;;;16.90;;
40599;SDS011;26309;50.924;4.754;2023-04-24T02:56:44;24.47;;;17.53;;
40599;SDS011;26309;50.924;4.754;2023-04-24T02:59:10;24.37;;;18.03;;
40599;SDS011;26309;50.924;4.754;2023-04-24T03:01:36;23.47;;;17.60;;
40599;SDS011;26309;50.924;4.754;2023-04-24T03:04:02;28.37;;;17.50;;
40599;SDS011;26309;50.924;4.754;2023-04-24T03:06:28;24.23;;;17.57;;
40599;SDS011;26309;50.924;4.754;2023-04-24T03:08:56;24.57;;;17.80;;
40599;SDS011;26309;50.924;4.754;2023-04-24T03:11:22;21.83;;;16.77;;
40599;SDS011;26309;50.924;4.754;2023-04-24T03:13:49;24.33;;;17.43;;
40599;SDS011;26309;50.924;4.754;2023-04-24T03:16:15;20.23;;;17.10;;
40599;SDS011;26309;50.924;4.754;2023-04-24T03:18:41;25.10;;;17.93;;
40599;SDS011;26309;50.924;4.754;2023-04-24T03:21:06;22.97;;;18.10;;
40599;SDS011;26309;50.924;4.754;2023-04-24T03:23:32;24.77;;;18.67;;
40599;SDS011;26309;50.924;4.754;2023-04-24T03:25:58;23.97;;;18.50;;
40599;SDS011;26309;50.924;4.754;2023-04-24T03:28:24;24.37;;;17.87;;
40599;SDS011;26309;50.924;4.754;2023-04-24T03:30:50;22.00;;;17.17;;
40599;SDS011;26309;50.924;4.754;2023-04-24T03:33:16;19.70;;;16.77;;
40599;SDS011;26309;50.924;4.754;2023-04-24T03:35:42;22.03;;;16.07;;
40599;SDS011;26309;50.924;4.754;2023-04-24T03:38:07;20.83;;;14.77;;
40599;SDS011;26309;50.924;4.754;2023-04-24T03:40:33;19.40;;;15.27;;
40599;SDS011;26309;50.924;4.754;2023-04-24T03:42:59;22.20;;;13.83;;
40599;SDS011;26309;50.924;4.754;2023-04-24T03:45:25;19.60;;;14.13;;
40599;SDS011;26309;50.924;4.754;2023-04-24T03:47:51;20.43;;;14.60;;
40599;SDS011;26309;50.924;4.754;2023-04-24T03:50:17;20.33;;;14.27;;
40599;SDS011;26309;50.924;4.754;2023-04-24T03:52:42;18.50;;;13.70;;
40599;SDS011;26309;50.924;4.754;2023-04-24T03:55:09;19.93;;;13.07;;
40599;SDS011;26309;50.924;4.754;2023-04-24T03:57:41;22.03;;;13.97;;
40599;SDS011;26309;50.924;4.754;2023-04-24T04:00:07;19.50;;;15.00;;
40599;SDS011;26309;50.924;4.754;2023-04-24T04:02:34;18.47;;;13.63;;
40599;SDS011;26309;50.924;4.754;2023-04-24T04:05:00;20.90;;;12.73;;
40599;SDS011;26309;50.924;4.754;2023-04-24T04:07:26;17.37;;;12.77;;
40599;SDS011;26309;50.924;4.754;2023-04-24T04:09:51;15.87;;;11.30;;
40599;SDS011;26309;50.924;4.754;2023-04-24T04:12:17;19.37;;;13.07;;
40599;SDS011;26309;50.924;4.754;2023-04-24T04:14:43;13.43;;;11.30;;
40599;SDS011;26309;50.924;4.754;2023-04-24T04:17:12;13.50;;;11.43;;
40599;SDS011;26309;50.924;4.754;2023-04-24T04:19:38;17.70;;;11.40;;
40599;SDS011;26309;50.924;4.754;2023-04-24T04:22:03;15.00;;;11.13;;
40599;SDS011;26309;50.924;4.754;2023-04-24T04:24:30;14.60;;;10.60;;
40599;SDS011;26309;50.924;4.754;2023-04-24T04:26:55;16.60;;;10.67;;
40599;SDS011;26309;50.924;4.754;2023-04-24T04:29:23;15.73;;;10.63;;
40599;SDS011;26309;50.924;4.754;2023-04-24T04:31:50;16.13;;;11.07;;
40599;SDS011;26309;50.924;4.754;2023-04-24T04:34:17;14.40;;;11.00;;
40599;SDS011;26309;50.924;4.754;2023-04-24T04:36:43;13.77;;;10.07;;
40599;SDS011;26309;50.924;4.754;2023-04-24T04:39:09;13.70;;;9.33;;
40599;SDS011;26309;50.924;4.754;2023-04-24T04:41:35;14.37;;;9.93;;
40599;SDS011;26309;50.924;4.754;2023-04-24T04:44:01;15.07;;;9.40;;
40599;SDS011;26309;50.924;4.754;2023-04-24T04:46:29;11.90;;;9.07;;
40599;SDS011;26309;50.924;4.754;2023-04-24T04:48:57;13.50;;;10.17;;
40599;SDS011;26309;50.924;4.754;2023-04-24T04:51:24;12.37;;;10.30;;
40599;SDS011;26309;50.924;4.754;2023-04-24T04:53:50;13.33;;;9.23;;
40599;SDS011;26309;50.924;4.754;2023-04-24T04:56:16;11.60;;;9.10;;
40599;SDS011;26309;50.924;4.754;2023-04-24T04:58:42;13.03;;;8.97;;
40599;SDS011;26309;50.924;4.754;2023-04-24T05:01:07;12.93;;;9.23;;
40599;SDS011;26309;50.924;4.754;2023-04-24T05:03:36;15.40;;;10.57;;
40599;SDS011;26309;50.924;4.754;2023-04-24T05:06:02;14.70;;;10.47;;
40599;SDS011;26309;50.924;4.754;2023-04-24T05:08:28;16.10;;;11.00;;
40599;SDS011;26309;50.924;4.754;2023-04-24T05:10:54;16.57;;;10.00;;
40599;SDS011;26309;50.924;4.754;2023-04-24T05:13:20;17.60;;;10.90;;
40599;SDS011;26309;50.924;4.754;2023-04-24T05:15:48;17.50;;;11.40;;
40599;SDS011;26309;50.924;4.754;2023-04-24T05:18:19;20.90;;;12.63;;
40599;SDS011;26309;50.924;4.754;2023-04-24T05:20:45;19.90;;;12.50;;
40599;SDS011;26309;50.924;4.754;2023-04-24T05:23:10;20.73;;;14.37;;
40599;SDS011;26309;50.924;4.754;2023-04-24T05:25:37;21.97;;;15.03;;
40599;SDS011;26309;50.924;4.754;2023-04-24T05:28:04;20.37;;;16.47;;
40599;SDS011;26309;50.924;4.754;2023-04-24T05:30:30;26.23;;;17.63;;
40599;SDS011;26309;50.924;4.754;2023-04-24T05:32:56;25.77;;;16.23;;
40599;SDS011;26309;50.924;4.754;2023-04-24T05:35:22;22.77;;;16.87;;
40599;SDS011;26309;50.924;4.754;2023-04-24T05:37:48;22.90;;;15.57;;
40599;SDS011;26309;50.924;4.754;2023-04-24T05:40:14;25.77;;;15.93;;
40599;SDS011;26309;50.924;4.754;2023-04-24T05:42:40;23.20;;;15.67;;
40599;SDS011;26309;50.924;4.754;2023-04-24T05:45:06;19.50;;;14.13;;
40599;SDS011;26309;50.924;4.754;2023-04-24T05:47:32;26.37;;;15.17;;
40599;SDS011;26309;50.924;4.754;2023-04-24T05:49:58;20.80;;;14.77;;
40599;SDS011;26309;50.924;4.754;2023-04-24T05:52:23;20.20;;;15.30;;
40599;SDS011;26309;50.924;4.754;2023-04-24T05:54:49;23.30;;;15.73;;
40599;SDS011;26309;50.924;4.754;2023-04-24T05:57:15;22.30;;;14.73;;
40599;SDS011;26309;50.924;4.754;2023-04-24T05:59:43;23.50;;;15.73;;
40599;SDS011;26309;50.924;4.754;2023-04-24T06:02:08;25.10;;;16.37;;
40599;SDS011;26309;50.924;4.754;2023-04-24T06:04:34;22.47;;;15.67;;
40599;SDS011;26309;50.924;4.754;2023-04-24T06:07:00;23.50;;;15.90;;
40599;SDS011;26309;50.924;4.754;2023-04-24T06:09:26;24.43;;;17.07;;
40599;SDS011;26309;50.924;4.754;2023-04-24T06:11:53;25.00;;;16.10;;
40599;SDS011;26309;50.924;4.754;2023-04-24T06:14:20;24.63;;;16.80;;
40599;SDS011;26309;50.924;4.754;2023-04-24T06:16:46;30.43;;;16.57;;
40599;SDS011;26309;50.924;4.754;2023-04-24T06:19:12;27.07;;;16.57;;
40599;SDS011;26309;50.924;4.754;2023-04-24T06:21:37;28.83;;;16.90;;
40599;SDS011;26309;50.924;4.754;2023-04-24T06:24:03;26.13;;;17.23;;
40599;SDS011;26309;50.924;4.754;2023-04-24T06:26:29;29.40;;;17.67;;
40599;SDS011;26309;50.924;4.754;2023-04-24T06:28:55;24.47;;;16.40;;
40599;SDS011;26309;50.924;4.754;2023-04-24T06:31:24;25.97;;;18.10;;
40599;SDS011;26309;50.924;4.754;2023-04-24T06:33:50;29.03;;;18.17;;
40599;SDS011;26309;50.924;4.754;2023-04-24T06:36:16;27.00;;;17.93;;
40599;SDS011;26309;50.924;4.754;2023-04-24T06:38:42;23.90;;;14.90;;
40599;SDS011;26309;50.924;4.754;2023-04-24T06:41:09;29.40;;;18.30;;
40599;SDS011;26309;50.924;4.754;2023-04-24T06:43:35;25.97;;;17.37;;
40599;SDS011;26309;50.924;4.754;2023-04-24T06:46:01;34.17;;;19.73;;
40599;SDS011;26309;50.924;4.754;2023-04-24T06:48:28;33.17;;;19.60;;
40599;SDS011;26309;50.924;4.754;2023-04-24T06:50:54;29.30;;;19.87;;
40599;SDS011;26309;50.924;4.754;2023-04-24T06:53:20;32.50;;;19.97;;
40599;SDS011;26309;50.924;4.754;2023-04-24T06:55:46;36.17;;;20.87;;
40599;SDS011;26309;50.924;4.754;2023-04-24T06:58:12;35.53;;;20.50;;
40599;SDS011;26309;50.924;4.754;2023-04-24T07:00:38;32.83;;;20.63;;
40599;SDS011;26309;50.924;4.754;2023-04-24T07:03:04;32.97;;;22.27;;
40599;SDS011;26309;50.924;4.754;2023-04-24T07:05:30;32.40;;;21.33;;
40599;SDS011;26309;50.924;4.754;2023-04-24T07:07:59;32.93;;;21.90;;
40599;SDS011;26309;50.924;4.754;2023-04-24T07:10:25;35.43;;;21.23;;
40599;SDS011;26309;50.924;4.754;2023-04-24T07:12:53;38.30;;;21.40;;
40599;SDS011;26309;50.924;4.754;2023-04-24T07:15:21;39.10;;;22.67;;
40599;SDS011;26309;50.924;4.754;2023-04-24T07:17:47;44.50;;;23.03;;
40599;SDS011;26309;50.924;4.754;2023-04-24T07:20:12;36.23;;;22.93;;
40599;SDS011;26309;50.924;4.754;2023-04-24T07:22:40;44.67;;;24.00;;
40599;SDS011;26309;50.924;4.754;2023-04-24T07:25:06;34.53;;;22.67;;
40599;SDS011;26309;50.924;4.754;2023-04-24T07:27:33;36.87;;;21.47;;
40599;SDS011;26309;50.924;4.754;2023-04-24T07:29:59;33.80;;;22.10;;
40599;SDS011;26309;50.924;4.754;2023-04-24T07:32:26;38.13;;;20.83;;
40599;SDS011;26309;50.924;4.754;2023-04-24T07:34:52;30.53;;;20.23;;
40599;SDS011;26309;50.924;4.754;2023-04-24T07:37:17;30.43;;;18.50;;
40599;SDS011;26309;50.924;4.754;2023-04-24T07:39:47;32.00;;;19.13;;
40599;SDS011;26309;50.924;4.754;2023-04-24T07:42:12;31.67;;;18.03;;
40599;SDS011;26309;50.924;4.754;2023-04-24T07:44:40;27.20;;;15.33;;
40599;SDS011;26309;50.924;4.754;2023-04-24T07:47:06;25.47;;;16.37;;
40599;SDS011;26309;50.924;4.754;2023-04-24T07:49:32;25.37;;;14.60;;
40599;SDS011;26309;50.924;4.754;2023-04-24T07:52:00;22.67;;;15.03;;
40599;SDS011;26309;50.924;4.754;2023-04-24T07:54:27;23.73;;;15.40;;
40599;SDS011;26309;50.924;4.754;2023-04-24T07:56:54;29.93;;;15.50;;
40599;SDS011;26309;50.924;4.754;2023-04-24T07:59:19;26.40;;;15.23;;
40599;SDS011;26309;50.924;4.754;2023-04-24T08:04:15;23.50;;;13.27;;
40599;SDS011;26309;50.924;4.754;2023-04-24T08:06:43;23.93;;;12.40;;
40599;SDS011;26309;50.924;4.754;2023-04-24T08:09:10;22.40;;;12.03;;
40599;SDS011;26309;50.924;4.754;2023-04-24T08:11:35;19.53;;;10.23;;
40599;SDS011;26309;50.924;4.754;2023-04-24T08:14:01;21.63;;;10.83;;
40599;SDS011;26309;50.924;4.754;2023-04-24T08:16:27;21.40;;;9.63;;
40599;SDS011;26309;50.924;4.754;2023-04-24T08:18:53;22.40;;;9.20;;
40599;SDS011;26309;50.924;4.754;2023-04-24T08:21:19;22.47;;;10.30;;
40599;SDS011;26309;50.924;4.754;2023-04-24T08:23:45;21.53;;;10.80;;
40599;SDS011;26309;50.924;4.754;2023-04-24T08:26:12;19.80;;;11.57;;
40599;SDS011;26309;50.924;4.754;2023-04-24T08:28:38;25.70;;;12.70;;
40599;SDS011;26309;50.924;4.754;2023-04-24T08:31:04;22.53;;;12.90;;
40599;SDS011;26309;50.924;4.754;2023-04-24T08:33:30;25.90;;;14.07;;
40599;SDS011;26309;50.924;4.754;2023-04-24T08:36:05;27.50;;;14.10;;
40599;SDS011;26309;50.924;4.754;2023-04-24T08:38:32;27.37;;;14.30;;
40599;SDS011;26309;50.924;4.754;2023-04-24T08:40:59;23.40;;;14.50;;
40599;SDS011;26309;50.924;4.754;2023-04-24T08:43:26;23.03;;;12.07;;
40599;SDS011;26309;50.924;4.754;2023-04-24T08:45:52;22.67;;;11.83;;
40599;SDS011;26309;50.924;4.754;2023-04-24T08:48:21;20.87;;;11.23;;
40599;SDS011;26309;50.924;4.754;2023-04-24T08:50:48;13.33;;;9.77;;
40599;SDS011;26309;50.924;4.754;2023-04-24T08:53:16;18.77;;;8.90;;
40599;SDS011;26309;50.924;4.754;2023-04-24T08:55:43;18.87;;;10.13;;
40599;SDS011;26309;50.924;4.754;2023-04-24T08:58:13;23.57;;;9.50;;
40599;SDS011;26309;50.924;4.754;2023-04-24T09:00:41;21.73;;;9.68;;
40599;SDS011;26309;50.924;4.754;2023-04-24T09:03:15;24.40;;;10.10;;
40599;SDS011;26309;50.924;4.754;2023-04-24T09:05:42;21.90;;;10.18;;
40599;SDS011;26309;50.924;4.754;2023-04-24T09:08:10;21.48;;;9.70;;
40599;SDS011;26309;50.924;4.754;2023-04-24T09:10:40;19.20;;;10.38;;
40599;SDS011;26309;50.924;4.754;2023-04-24T09:13:06;19.60;;;10.35;;
40599;SDS011;26309;50.924;4.754;2023-04-24T09:15:34;23.92;;;9.82;;
40599;SDS011;26309;50.924;4.754;2023-04-24T09:18:00;19.50;;;8.93;;
40599;SDS011;26309;50.924;4.754;2023-04-24T09:20:27;16.98;;;7.75;;
40599;SDS011;26309;50.924;4.754;2023-04-24T09:22:54;20.03;;;7.87;;
40599;SDS011;26309;50.924;4.754;2023-04-24T09:25:25;14.97;;;8.13;;
40599;SDS011;26309;50.924;4.754;2023-04-24T09:28:00;16.90;;;8.93;;
40599;SDS011;26309;50.924;4.754;2023-04-24T09:30:28;20.53;;;9.60;;
40599;SDS011;26309;50.924;4.754;2023-04-24T09:33:12;20.20;;;9.63;;
40599;SDS011;26309;50.924;4.754;2023-04-24T09:35:48;24.73;;;10.57;;
40599;SDS011;26309;50.924;4.754;2023-04-24T09:38:19;19.20;;;9.00;;
40599;SDS011;26309;50.924;4.754;2023-04-24T09:40:58;22.40;;;10.60;;
40599;SDS011;26309;50.924;4.754;2023-04-24T09:43:26;19.90;;;8.95;;
40599;SDS011;26309;50.924;4.754;2023-04-24T09:45:53;15.27;;;7.75;;
40599;SDS011;26309;50.924;4.754;2023-04-24T09:48:32;17.33;;;7.47;;
40599;SDS011;26309;50.924;4.754;2023-04-24T09:51:00;18.55;;;7.57;;
40599;SDS011;26309;50.924;4.754;2023-04-24T09:53:27;14.20;;;6.93;;
40599;SDS011;26309;50.924;4.754;2023-04-24T09:55:53;18.27;;;7.17;;
40599;SDS011;26309;50.924;4.754;2023-04-24T09:58:25;17.17;;;7.97;;
40599;SDS011;26309;50.924;4.754;2023-04-24T10:00:57;14.98;;;7.32;;
40599;SDS011;26309;50.924;4.754;2023-04-24T10:03:24;11.88;;;6.53;;
40599;SDS011;26309;50.924;4.754;2023-04-24T10:05:54;16.15;;;5.88;;
40599;SDS011;26309;50.924;4.754;2023-04-24T10:08:24;14.90;;;6.18;;
40599;SDS011;26309;50.924;4.754;2023-04-24T10:10:52;16.92;;;5.88;;
40599;SDS011;26309;50.924;4.754;2023-04-24T10:13:18;12.38;;;5.28;;
40599;SDS011;26309;50.924;4.754;2023-04-24T10:15:44;10.95;;;5.30;;
40599;SDS011;26309;50.924;4.754;2023-04-24T10:18:11;10.18;;;4.00;;
40599;SDS011;26309;50.924;4.754;2023-04-24T10:20:38;9.88;;;4.65;;
40599;SDS011;26309;50.924;4.754;2023-04-24T10:23:05;8.95;;;4.13;;
40599;SDS011;26309;50.924;4.754;2023-04-24T10:25:32;7.75;;;4.65;;
40599;SDS011;26309;50.924;4.754;2023-04-24T10:28:00;9.75;;;4.80;;
40599;SDS011;26309;50.924;4.754;2023-04-24T10:30:31;10.38;;;5.00;;
40599;SDS011;26309;50.924;4.754;2023-04-24T10:33:02;10.73;;;4.90;;
40599;SDS011;26309;50.924;4.754;2023-04-24T10:35:33;14.93;;;4.95;;
40599;SDS011;26309;50.924;4.754;2023-04-24T10:38:14;10.50;;;4.97;;
40599;SDS011;26309;50.924;4.754;2023-04-24T10:40:43;9.90;;;4.78;;
40599;SDS011;26309;50.924;4.754;2023-04-24T10:43:09;10.68;;;5.15;;
40599;SDS011;26309;50.924;4.754;2023-04-24T10:45:37;15.55;;;4.82;;
40599;SDS011;26309;50.924;4.754;2023-04-24T10:48:04;11.43;;;5.00;;
40599;SDS011;26309;50.924;4.754;2023-04-24T10:50:45;9.15;;;4.55;;
40599;SDS011;26309;50.924;4.754;2023-04-24T10:53:19;15.13;;;5.03;;
40599;SDS011;26309;50.924;4.754;2023-04-24T10:55:52;9.85;;;4.68;;
40599;SDS011;26309;50.924;4.754;2023-04-24T10:58:24;11.68;;;4.30;;
40599;SDS011;26309;50.924;4.754;2023-04-24T11:01:05;8.05;;;4.45;;
40599;SDS011;26309;50.924;4.754;2023-04-24T11:03:32;10.25;;;4.68;;
40599;SDS011;26309;50.924;4.754;2023-04-24T11:06:07;9.00;;;4.28;;
40599;SDS011;26309;50.924;4.754;2023-04-24T11:08:38;11.73;;;4.80;;
40599;SDS011;26309;50.924;4.754;2023-04-24T11:11:09;10.48;;;4.63;;
40599;SDS011;26309;50.924;4.754;2023-04-24T11:16:20;11.50;;;4.45;;
40599;SDS011;26309;50.924;4.754;2023-04-24T11:18:50;8.40;;;4.40;;
40599;SDS011;26309;50.924;4.754;2023-04-24T11:21:19;7.25;;;4.60;;
40599;SDS011;26309;50.924;4.754;2023-04-24T11:23:45;9.50;;;4.57;;
40599;SDS011;26309;50.924;4.754;2023-04-24T11:26:12;11.60;;;4.78;;
40599;SDS011;26309;50.924;4.754;2023-04-24T11:28:49;7.50;;;4.40;;
40599;SDS011;26309;50.924;4.754;2023-04-24T11:34:08;10.55;;;4.43;;
40599;SDS011;26309;50.924;4.754;2023-04-24T11:36:39;9.10;;;4.70;;
40599;SDS011;26309;50.924;4.754;2023-04-24T11:39:07;10.07;;;4.60;;
40599;SDS011;26309;50.924;4.754;2023-04-24T11:41:34;7.55;;;4.32;;
40599;SDS011;26309;50.924;4.754;2023-04-24T11:44:00;8.10;;;3.90;;
40599;SDS011;26309;50.924;4.754;2023-04-24T11:46:30;6.72;;;3.95;;
40599;SDS011;26309;50.924;4.754;2023-04-24T11:49:00;9.75;;;4.72;;
40599;SDS011;26309;50.924;4.754;2023-04-24T11:51:26;9.70;;;4.13;;
40599;SDS011;26309;50.924;4.754;2023-04-24T11:53:53;10.82;;;4.75;;
40599;SDS011;26309;50.924;4.754;2023-04-24T11:56:23;9.00;;;4.93;;
40599;SDS011;26309;50.924;4.754;2023-04-24T11:58:52;8.02;;;5.03;;
40599;SDS011;26309;50.924;4.754;2023-04-24T12:01:19;7.63;;;3.95;;
40599;SDS011;26309;50.924;4.754;2023-04-24T12:03:58;9.93;;;4.55;;
40599;SDS011;26309;50.924;4.754;2023-04-24T12:06:25;8.43;;;4.53;;
40599;SDS011;26309;50.924;4.754;2023-04-24T12:08:52;8.52;;;4.55;;
40599;SDS011;26309;50.924;4.754;2023-04-24T12:11:20;9.77;;;4.50;;
40599;SDS011;26309;50.924;4.754;2023-04-24T12:13:46;7.40;;;4.65;;
40599;SDS011;26309;50.924;4.754;2023-04-24T12:16:12;11.02;;;4.82;;
40599;SDS011;26309;50.924;4.754;2023-04-24T12:18:41;8.93;;;4.20;;
40599;SDS011;26309;50.924;4.754;2023-04-24T12:21:15;8.77;;;5.07;;
40599;SDS011;26309;50.924;4.754;2023-04-24T12:23:46;6.97;;;4.65;;
40599;SDS011;26309;50.924;4.754;2023-04-24T12:26:18;7.43;;;4.50;;
40599;SDS011;26309;50.924;4.754;2023-04-24T12:28:47;10.93;;;5.28;;
40599;SDS011;26309;50.924;4.754;2023-04-24T12:31:14;6.32;;;4.63;;
40599;SDS011;26309;50.924;4.754;2023-04-24T12:33:43;7.78;;;4.38;;
40599;SDS011;26309;50.924;4.754;2023-04-24T12:36:12;9.50;;;4.30;;
40599;SDS011;26309;50.924;4.754;2023-04-24T12:38:38;8.93;;;4.65;;
40599;SDS011;26309;50.924;4.754;2023-04-24T12:41:12;7.68;;;4.55;;
40599;SDS011;26309;50.924;4.754;2023-04-24T12:43:50;8.50;;;4.57;;
40599;SDS011;26309;50.924;4.754;2023-04-24T12:46:17;8.73;;;4.80;;
40599;SDS011;26309;50.924;4.754;2023-04-24T12:48:43;11.38;;;5.10;;
40599;SDS011;26309;50.924;4.754;2023-04-24T12:51:09;11.63;;;5.13;;
40599;SDS011;26309;50.924;4.754;2023-04-24T12:53:36;9.30;;;4.80;;
40599;SDS011;26309;50.924;4.754;2023-04-24T12:56:01;8.70;;;5.38;;
40599;SDS011;26309;50.924;4.754;2023-04-24T12:58:27;7.75;;;5.10;;
40599;SDS011;26309;50.924;4.754;2023-04-24T13:00:53;7.75;;;5.30;;
40599;SDS011;26309;50.924;4.754;2023-04-24T13:03:20;8.63;;;5.43;;
40599;SDS011;26309;50.924;4.754;2023-04-24T13:05:47;8.88;;;5.15;;
40599;SDS011;26309;50.924;4.754;2023-04-24T13:08:13;9.88;;;5.40;;
40599;SDS011;26309;50.924;4.754;2023-04-24T13:10:39;8.05;;;4.57;;
40599;SDS011;26309;50.924;4.754;2023-04-24T13:13:05;8.15;;;4.25;;
40599;SDS011;26309;50.924;4.754;2023-04-24T13:15:32;8.65;;;4.50;;
40599;SDS011;26309;50.924;4.754;2023-04-24T13:17:58;7.05;;;4.00;;
40599;SDS011;26309;50.924;4.754;2023-04-24T13:20:24;6.70;;;4.07;;
40599;SDS011;26309;50.924;4.754;2023-04-24T13:22:50;7.60;;;4.28;;
40599;SDS011;26309;50.924;4.754;2023-04-24T13:25:16;6.35;;;4.35;;
40599;SDS011;26309;50.924;4.754;2023-04-24T13:27:43;6.60;;;4.07;;
40599;SDS011;26309;50.924;4.754;2023-04-24T13:30:09;5.82;;;3.58;;
40599;SDS011;26309;50.924;4.754;2023-04-24T13:32:35;9.07;;;4.07;;
40599;SDS011;26309;50.924;4.754;2023-04-24T13:35:01;7.28;;;4.22;;
40599;SDS011;26309;50.924;4.754;2023-04-24T13:37:27;6.35;;;3.75;;
40599;SDS011;26309;50.924;4.754;2023-04-24T13:39:53;9.85;;;4.00;;
40599;SDS011;26309;50.924;4.754;2023-04-24T13:42:19;9.90;;;3.80;;
40599;SDS011;26309;50.924;4.754;2023-04-24T13:44:45;5.65;;;3.70;;
40599;SDS011;26309;50.924;4.754;2023-04-24T13:47:11;8.25;;;4.30;;
40599;SDS011;26309;50.924;4.754;2023-04-24T13:49:37;7.75;;;4.18;;
40599;SDS011;26309;50.924;4.754;2023-04-24T13:52:03;7.07;;;3.90;;
40599;SDS011;26309;50.924;4.754;2023-04-24T13:54:29;11.88;;;4.07;;
40599;SDS011;26309;50.924;4.754;2023-04-24T13:56:57;8.82;;;4.32;;
40599;SDS011;26309;50.924;4.754;2023-04-24T13:59:23;10.95;;;4.10;;
40599;SDS011;26309;50.924;4.754;2023-04-24T14:01:49;10.80;;;4.05;;
40599;SDS011;26309;50.924;4.754;2023-04-24T14:04:15;9.02;;;3.08;;
40599;SDS011;26309;50.924;4.754;2023-04-24T14:06:41;11.93;;;3.45;;
40599;SDS011;26309;50.924;4.754;2023-04-24T14:09:06;8.93;;;3.28;;
40599;SDS011;26309;50.924;4.754;2023-04-24T14:11:33;8.13;;;3.42;;
40599;SDS011;26309;50.924;4.754;2023-04-24T14:13:59;6.60;;;2.67;;
40599;SDS011;26309;50.924;4.754;2023-04-24T14:16:25;5.10;;;3.03;;
40599;SDS011;26309;50.924;4.754;2023-04-24T14:18:51;8.45;;;3.20;;
40599;SDS011;26309;50.924;4.754;2023-04-24T14:21:17;6.55;;;2.78;;
40599;SDS011;26309;50.924;4.754;2023-04-24T14:23:43;6.07;;;2.55;;
40599;SDS011;26309;50.924;4.754;2023-04-24T14:26:09;6.07;;;2.67;;
40599;SDS011;26309;50.924;4.754;2023-04-24T14:28:35;4.95;;;2.33;;
40599;SDS011;26309;50.924;4.754;2023-04-24T14:31:01;6.47;;;2.53;;
40599;SDS011;26309;50.924;4.754;2023-04-24T14:33:27;4.60;;;2.13;;
40599;SDS011;26309;50.924;4.754;2023-04-24T14:35:52;3.75;;;2.08;;
40599;SDS011;26309;50.924;4.754;2023-04-24T14:38:18;4.05;;;2.30;;